createdAt,value
2018-07-13T00:00:56.256Z,14.10
2018-07-13T00:03:24.704Z,14.00
2018-07-13T00:05:53.090Z,14.00
2018-07-13T00:08:21.535Z,14.00
2018-07-13T00:10:49.994Z,14.00
2018-07-13T00:13:18.374Z,14.00
2018-07-13T00:15:58.003Z,13.90
2018-07-13T00:18:26.396Z,13.90
2018-07-13T00:20:54.870Z,13.90
2018-07-13T00:23:23.265Z,13.80
2018-07-13T00:25:52.029Z,13.80
2018-07-13T00:28:20.480Z,13.70
2018-07-13T00:30:48.894Z,13.70
2018-07-13T00:33:17.465Z,13.70
2018-07-13T00:35:45.928Z,13.60
2018-07-13T00:38:14.344Z,13.70
2018-07-13T00:40:42.805Z,13.70
2018-07-13T00:43:11.214Z,13.70
2018-07-13T00:45:39.869Z,13.60
2018-07-13T00:48:08.253Z,13.60
2018-07-13T00:50:36.707Z,13.60
2018-07-13T00:53:05.121Z,13.50
2018-07-13T00:58:01.726Z,13.40
2018-07-13T01:00:32.152Z,13.40
2018-07-13T01:03:01.934Z,13.40
2018-07-13T01:05:30.627Z,13.40
2018-07-13T01:07:59.097Z,13.40
2018-07-13T01:10:27.661Z,13.40
2018-07-13T01:12:56.163Z,13.40
2018-07-13T01:15:24.607Z,13.30
2018-07-13T01:17:53.027Z,13.30
2018-07-13T01:20:21.473Z,13.30
2018-07-13T01:22:49.984Z,13.30
2018-07-13T01:25:18.411Z,13.20
2018-07-13T01:27:46.867Z,13.20
2018-07-13T01:30:15.245Z,13.20
2018-07-13T01:32:43.653Z,13.20
2018-07-13T01:35:12.067Z,13.10
2018-07-13T01:37:40.486Z,13.10
2018-07-13T01:40:08.943Z,13.00
2018-07-13T01:42:37.348Z,13.00
2018-07-13T01:45:05.838Z,12.90
2018-07-13T01:47:34.502Z,12.90
2018-07-13T01:50:03.122Z,12.90
2018-07-13T01:52:31.575Z,12.90
2018-07-13T01:55:00.027Z,12.80
2018-07-13T01:57:28.449Z,12.80
2018-07-13T01:59:56.914Z,12.80
2018-07-13T02:02:25.351Z,12.70
2018-07-13T02:07:22.057Z,12.70
2018-07-13T02:09:52.735Z,12.70
2018-07-13T02:12:21.292Z,12.70
2018-07-13T02:14:50.243Z,12.70
2018-07-13T02:17:18.661Z,12.60
2018-07-13T02:19:47.485Z,12.60
2018-07-13T02:22:15.910Z,12.60
2018-07-13T02:24:45.139Z,12.60
2018-07-13T02:27:13.841Z,12.50
2018-07-13T02:29:42.409Z,12.50
2018-07-13T02:32:10.947Z,12.50
2018-07-13T02:34:39.387Z,12.40
2018-07-13T02:37:07.911Z,12.40
2018-07-13T02:39:36.491Z,12.40
2018-07-13T02:42:04.929Z,12.40
2018-07-13T02:44:33.382Z,12.40
2018-07-13T02:47:01.802Z,12.40
2018-07-13T02:49:30.346Z,12.40
2018-07-13T02:51:58.919Z,12.40
2018-07-13T02:54:27.421Z,12.40
2018-07-13T02:56:55.837Z,12.30
2018-07-13T02:59:24.405Z,12.30
2018-07-13T03:04:21.151Z,12.30
2018-07-13T03:06:49.657Z,12.20
2018-07-13T03:09:18.264Z,12.20
2018-07-13T03:11:46.720Z,12.20
2018-07-13T03:14:15.175Z,12.20
2018-07-13T03:16:43.624Z,12.10
2018-07-13T03:19:12.065Z,12.10
2018-07-13T03:21:40.535Z,12.10
2018-07-13T03:24:09.073Z,12.10
2018-07-13T03:26:37.565Z,12.10
2018-07-13T03:29:05.999Z,12.20
2018-07-13T03:31:34.485Z,12.20
2018-07-13T03:34:02.904Z,12.20
2018-07-13T03:36:31.352Z,12.20
2018-07-13T03:38:59.883Z,12.20
2018-07-13T03:41:28.430Z,12.20
2018-07-13T03:43:56.900Z,12.10
2018-07-13T03:46:25.373Z,12.10
2018-07-13T03:48:53.796Z,12.10
2018-07-13T03:51:22.294Z,12.00
2018-07-13T03:53:50.780Z,12.00
2018-07-13T03:56:19.206Z,12.00
2018-07-13T03:58:47.781Z,12.00
2018-07-13T04:01:16.264Z,12.00
2018-07-13T04:03:44.720Z,12.00
2018-07-13T04:06:13.156Z,12.00
2018-07-13T04:08:41.568Z,12.10
2018-07-13T04:11:09.986Z,12.00
2018-07-13T04:13:38.451Z,12.10
2018-07-13T04:16:07.074Z,12.10
2018-07-13T04:18:35.586Z,12.00
2018-07-13T04:21:04.034Z,12.10
2018-07-13T04:23:32.553Z,12.10
2018-07-13T04:26:01.021Z,12.10
2018-07-13T04:28:29.581Z,12.20
2018-07-13T04:30:58.065Z,12.20
2018-07-13T04:33:26.540Z,12.20
2018-07-13T04:35:55.150Z,12.30
2018-07-13T04:38:23.589Z,12.40
2018-07-13T04:40:52.120Z,12.40
2018-07-13T04:43:20.523Z,12.40
2018-07-13T04:45:49.873Z,12.50
2018-07-13T04:48:18.393Z,12.50
2018-07-13T04:50:46.955Z,12.60
2018-07-13T04:53:15.858Z,12.60
2018-07-13T04:55:44.362Z,12.70
2018-07-13T04:58:13.354Z,12.70
2018-07-13T05:00:41.940Z,12.80
2018-07-13T05:03:10.637Z,12.80
2018-07-13T05:05:39.289Z,12.90
2018-07-13T05:08:07.793Z,13.00
2018-07-13T05:10:36.287Z,13.00
2018-07-13T05:13:04.911Z,13.10
2018-07-13T05:15:33.635Z,13.30
2018-07-13T05:18:02.258Z,13.40
2018-07-13T05:20:30.824Z,13.60
2018-07-13T05:22:59.355Z,13.70
2018-07-13T05:25:27.936Z,13.90
2018-07-13T05:27:56.904Z,14.00
2018-07-13T05:30:25.582Z,14.20
2018-07-13T05:32:54.256Z,14.40
2018-07-13T05:35:22.923Z,14.50
2018-07-13T05:37:51.595Z,14.60
2018-07-13T05:40:20.358Z,14.70
2018-07-13T05:42:49.090Z,14.90
2018-07-13T05:45:17.959Z,15.10
2018-07-13T05:47:46.704Z,15.20
2018-07-13T05:50:15.506Z,15.40
2018-07-13T05:52:45.049Z,15.50
2018-07-13T05:55:14.302Z,15.70
2018-07-13T05:57:43.014Z,15.90
2018-07-13T06:00:11.774Z,16.10
2018-07-13T06:02:40.404Z,16.20
2018-07-13T06:05:09.210Z,16.40
2018-07-13T06:07:39.806Z,16.60
2018-07-13T06:10:08.523Z,16.80
2018-07-13T06:12:37.295Z,16.90
2018-07-13T06:15:06.508Z,17.10
2018-07-13T06:17:35.303Z,17.20
2018-07-13T06:20:04.055Z,17.40
2018-07-13T06:22:33.061Z,17.40
2018-07-13T06:25:01.600Z,17.50
2018-07-13T06:27:30.195Z,17.70
2018-07-13T06:29:58.751Z,17.80
2018-07-13T06:32:28.145Z,18.10
2018-07-13T06:34:56.829Z,18.20
2018-07-13T06:37:25.384Z,18.40
2018-07-13T06:39:54.103Z,18.50
2018-07-13T06:42:22.992Z,18.70
2018-07-13T06:44:51.563Z,18.90
2018-07-13T06:47:20.158Z,19.10
2018-07-13T06:49:48.846Z,19.30
2018-07-13T06:52:17.535Z,19.50
2018-07-13T06:54:46.430Z,19.70
2018-07-13T06:59:27.265Z,19.90
2018-07-13T07:01:55.915Z,20.30
2018-07-13T07:04:28.554Z,20.80
2018-07-13T07:06:57.738Z,20.90
2018-07-13T07:09:27.489Z,21.10
2018-07-13T07:12:12.201Z,21.40
2018-07-13T07:14:40.793Z,21.90
2018-07-13T07:17:09.345Z,22.60
2018-07-13T07:19:37.860Z,23.20
2018-07-13T07:22:06.737Z,24.30
2018-07-13T07:24:36.046Z,25.10
2018-07-13T07:27:05.423Z,25.90
2018-07-13T07:29:33.990Z,26.70
2018-07-13T07:32:02.531Z,27.10
2018-07-13T07:34:31.230Z,27.50
2018-07-13T07:36:59.714Z,28.00
2018-07-13T07:39:28.305Z,28.30
2018-07-13T07:41:58.592Z,28.40
2018-07-13T07:44:28.014Z,28.40
2018-07-13T07:46:56.872Z,29.20
2018-07-13T07:49:25.483Z,29.30
2018-07-13T07:51:54.100Z,29.40
2018-07-13T07:54:22.590Z,29.90
2018-07-13T07:56:51.307Z,29.90
2018-07-13T07:59:20.367Z,30.00
2018-07-13T08:01:49.254Z,30.30
2018-07-13T08:04:17.901Z,30.60
2018-07-13T08:06:46.712Z,31.20
2018-07-13T08:09:15.492Z,31.50
2018-07-13T08:11:45.242Z,31.50
2018-07-13T08:14:14.057Z,31.40
2018-07-13T08:21:43.136Z,32.30
2018-07-13T08:24:13.648Z,32.10
2018-07-13T08:26:42.313Z,31.30
2018-07-13T08:29:12.615Z,31.00
2018-07-13T08:31:41.223Z,31.00
2018-07-13T08:34:09.728Z,31.60
2018-07-13T08:36:38.591Z,32.30
2018-07-13T08:39:08.347Z,32.30
2018-07-13T08:41:36.885Z,32.90
2018-07-13T08:44:05.553Z,33.10
2018-07-13T08:46:34.007Z,33.30
2018-07-13T08:49:02.684Z,33.40
2018-07-13T08:51:31.266Z,33.60
2018-07-13T08:53:59.883Z,34.10
2018-07-13T08:56:28.522Z,34.50
2018-07-13T08:58:57.162Z,35.10
2018-07-13T09:01:25.946Z,35.40
2018-07-13T09:03:54.739Z,35.30
2018-07-13T09:06:23.403Z,36.20
2018-07-13T09:08:52.086Z,36.40
2018-07-13T09:11:21.697Z,36.70
2018-07-13T09:13:50.615Z,36.50
2018-07-13T09:16:20.095Z,35.70
2018-07-13T09:18:48.944Z,34.50
2018-07-13T09:21:17.702Z,33.70
2018-07-13T09:23:46.205Z,33.40
2018-07-13T09:26:14.775Z,33.50
2018-07-13T09:28:43.251Z,33.90
2018-07-13T09:31:11.808Z,34.10
2018-07-13T09:33:40.569Z,35.30
2018-07-13T09:36:09.531Z,36.10
2018-07-13T09:38:38.395Z,37.00
2018-07-13T09:41:07.237Z,37.80
2018-07-13T09:43:36.757Z,38.60
2018-07-13T09:46:07.883Z,38.80
2018-07-13T09:48:37.809Z,39.60
2018-07-13T09:51:06.638Z,39.70
2018-07-13T09:53:35.988Z,39.80
2018-07-13T09:56:05.337Z,40.60
2018-07-13T09:58:37.863Z,40.50
2018-07-13T10:01:12.219Z,40.60
2018-07-13T10:03:40.945Z,40.60
2018-07-13T10:06:11.293Z,40.90
2018-07-13T10:08:39.928Z,41.10
2018-07-13T10:11:08.607Z,40.80
2018-07-13T10:13:37.419Z,40.70
2018-07-13T10:16:05.962Z,40.70
2018-07-13T10:18:34.528Z,40.80
2018-07-13T10:21:04.024Z,40.70
2018-07-13T10:23:33.204Z,40.70
2018-07-13T10:26:06.107Z,40.90
2018-07-13T10:28:36.724Z,41.20
2018-07-13T10:31:06.344Z,41.00
2018-07-13T10:33:36.092Z,40.70
2018-07-13T10:36:05.652Z,40.40
2018-07-13T10:38:34.312Z,39.60
2018-07-13T10:41:02.914Z,39.00
2018-07-13T10:43:31.811Z,38.20
2018-07-13T10:46:00.447Z,37.30
2018-07-13T10:48:29.158Z,37.40
2018-07-13T10:50:57.875Z,37.70
2018-07-13T10:53:26.572Z,38.00
2018-07-13T10:55:55.193Z,38.20
2018-07-13T10:58:24.421Z,39.70
2018-07-13T11:00:53.534Z,40.90
2018-07-13T11:03:22.426Z,40.40
2018-07-13T11:05:51.751Z,39.70
2018-07-13T11:08:20.854Z,40.70
2018-07-13T11:10:49.914Z,41.60
2018-07-13T11:13:18.880Z,40.90
2018-07-13T11:15:47.698Z,41.20
2018-07-13T11:18:16.430Z,41.10
2018-07-13T11:20:45.380Z,40.30
2018-07-13T11:23:14.388Z,39.50
2018-07-13T11:25:43.224Z,39.60
2018-07-13T11:28:12.006Z,40.40
2018-07-13T11:30:40.802Z,40.40
2018-07-13T11:33:09.874Z,40.10
2018-07-13T11:35:38.685Z,39.40
2018-07-13T11:38:07.928Z,38.90
2018-07-13T11:40:36.606Z,38.00
2018-07-13T11:43:05.201Z,37.60
2018-07-13T11:45:33.928Z,36.70
2018-07-13T11:48:02.759Z,35.90
2018-07-13T11:50:31.788Z,36.10
2018-07-13T11:53:00.730Z,36.30
2018-07-13T11:55:29.615Z,37.30
2018-07-13T11:57:58.307Z,38.00
2018-07-13T12:00:27.161Z,38.10
2018-07-13T12:02:55.831Z,38.40
2018-07-13T12:05:24.618Z,38.70
2018-07-13T12:07:54.245Z,39.00
2018-07-13T12:10:23.109Z,40.10
2018-07-13T12:12:56.642Z,40.90
2018-07-13T12:15:25.605Z,40.70
2018-07-13T12:17:54.857Z,39.90
2018-07-13T12:20:23.518Z,39.00
2018-07-13T12:22:52.519Z,39.00
2018-07-13T12:25:22.129Z,39.10
2018-07-13T12:27:51.261Z,39.00
2018-07-13T12:30:19.965Z,38.70
2018-07-13T12:32:48.799Z,38.00
2018-07-13T12:35:17.463Z,37.40
2018-07-13T12:37:46.059Z,37.30
2018-07-13T12:40:14.704Z,37.50
2018-07-13T12:42:43.495Z,38.20
2018-07-13T12:45:12.498Z,38.80
2018-07-13T12:47:41.166Z,39.50
2018-07-13T12:50:09.772Z,40.40
2018-07-13T12:52:38.463Z,40.90
2018-07-13T12:55:07.293Z,41.10
2018-07-13T12:57:35.978Z,41.60
2018-07-13T13:02:39.656Z,43.10
2018-07-13T13:05:09.424Z,44.20
2018-07-13T13:07:38.184Z,45.00
2018-07-13T13:12:35.286Z,45.60
2018-07-13T13:15:04.037Z,45.40
2018-07-13T13:17:32.808Z,45.10
2018-07-13T13:20:01.451Z,44.70
2018-07-13T13:22:30.106Z,43.90
2018-07-13T13:25:01.648Z,43.60
2018-07-13T13:27:30.342Z,43.10
2018-07-13T13:29:59.095Z,43.10
2018-07-13T13:32:27.703Z,43.30
2018-07-13T13:34:56.257Z,42.70
2018-07-13T13:37:24.907Z,43.10
2018-07-13T13:39:53.830Z,42.80
2018-07-13T13:42:22.572Z,42.40
2018-07-13T13:44:51.556Z,41.40
2018-07-13T13:47:20.400Z,40.10
2018-07-13T13:49:49.492Z,38.40
2018-07-13T13:54:46.764Z,37.10
2018-07-13T13:57:15.760Z,36.20
2018-07-13T13:59:45.243Z,35.00
2018-07-13T14:02:16.656Z,34.80
2018-07-13T14:04:49.292Z,35.20
2018-07-13T14:07:18.352Z,35.40
2018-07-13T14:09:47.032Z,35.80
2018-07-13T14:12:15.742Z,35.20
2018-07-13T14:14:44.228Z,34.90
2018-07-13T14:17:12.805Z,34.70
2018-07-13T14:19:42.257Z,34.70
2018-07-13T14:22:11.044Z,35.00
2018-07-13T14:24:39.640Z,35.10
2018-07-13T14:27:08.353Z,34.90
2018-07-13T14:29:36.845Z,34.90
2018-07-13T14:32:05.950Z,34.70
2018-07-13T14:34:34.827Z,34.30
2018-07-13T14:37:09.939Z,34.20
2018-07-13T14:39:44.052Z,34.20
2018-07-13T14:42:12.594Z,34.10
2018-07-13T14:44:41.114Z,34.30
2018-07-13T14:49:38.712Z,34.10
2018-07-13T14:52:08.699Z,34.00
2018-07-13T14:54:38.219Z,34.00
2018-07-13T14:59:36.456Z,34.10
2018-07-13T15:02:05.212Z,34.20
2018-07-13T15:04:33.817Z,34.20
2018-07-13T15:07:02.351Z,34.20
2018-07-13T15:09:30.888Z,34.30
2018-07-13T15:11:59.404Z,34.10
2018-07-13T15:14:28.041Z,34.00
2018-07-13T15:16:56.524Z,33.80
2018-07-13T15:19:25.151Z,33.60
2018-07-13T15:21:53.686Z,33.30
2018-07-13T15:24:22.308Z,33.00
2018-07-13T15:26:51.299Z,32.90
2018-07-13T15:29:19.942Z,32.80
2018-07-13T15:31:48.575Z,32.70
2018-07-13T15:34:18.802Z,32.50
2018-07-13T15:36:47.857Z,32.30
2018-07-13T15:39:17.894Z,31.80
2018-07-13T15:41:46.574Z,31.00
2018-07-13T15:44:15.295Z,30.70
2018-07-13T15:46:44.301Z,30.50
2018-07-13T15:49:16.324Z,30.50
2018-07-13T15:51:44.967Z,30.30
2018-07-13T15:54:13.516Z,30.30
2018-07-13T15:56:42.315Z,30.30
2018-07-13T15:59:11.219Z,30.30
2018-07-13T16:01:39.853Z,30.30
2018-07-13T16:04:09.662Z,30.00
2018-07-13T16:06:38.468Z,29.80
2018-07-13T16:09:07.072Z,29.50
2018-07-13T16:11:35.843Z,29.30
2018-07-13T16:14:04.410Z,29.10
2018-07-13T16:16:33.113Z,28.90
2018-07-13T16:19:01.751Z,28.80
2018-07-13T16:21:30.483Z,28.70
2018-07-13T16:23:59.174Z,28.50
2018-07-13T16:26:28.348Z,28.50
2018-07-13T16:28:58.327Z,28.40
2018-07-13T16:31:26.913Z,28.40
2018-07-13T16:33:56.035Z,28.50
2018-07-13T16:36:24.653Z,28.50
2018-07-13T16:38:53.339Z,28.50
2018-07-13T16:41:22.042Z,28.50
2018-07-13T16:43:50.728Z,28.50
2018-07-13T16:46:19.467Z,28.60
2018-07-13T16:48:48.049Z,28.50
2018-07-13T16:51:16.630Z,28.60
2018-07-13T16:53:45.211Z,28.60
2018-07-13T16:56:14.535Z,28.50
2018-07-13T16:58:43.337Z,28.50
2018-07-13T17:01:12.000Z,28.50
2018-07-13T17:03:48.304Z,28.40
2018-07-13T17:06:16.881Z,28.30
2018-07-13T17:08:45.687Z,28.20
2018-07-13T17:11:14.446Z,28.20
2018-07-13T17:13:43.049Z,28.10
2018-07-13T17:16:11.593Z,28.00
2018-07-13T17:18:40.142Z,28.00
2018-07-13T17:21:08.694Z,28.00
2018-07-13T17:23:37.415Z,27.90
2018-07-13T17:26:06.955Z,27.80
2018-07-13T17:28:35.534Z,27.70
2018-07-13T17:31:04.737Z,27.60
2018-07-13T17:33:33.381Z,27.60
2018-07-13T17:36:01.914Z,27.60
2018-07-13T17:38:30.700Z,27.50
2018-07-13T17:41:00.600Z,27.40
2018-07-13T17:43:29.336Z,27.40
2018-07-13T17:45:57.980Z,27.30
2018-07-13T17:48:31.568Z,27.30
2018-07-13T17:51:00.150Z,27.20
2018-07-13T17:53:28.738Z,27.20
2018-07-13T17:55:57.314Z,27.20
2018-07-13T17:58:26.004Z,27.10
2018-07-13T18:00:55.279Z,27.00
2018-07-13T18:03:24.249Z,26.90
2018-07-13T18:11:10.756Z,26.70
2018-07-13T18:13:44.186Z,26.60
2018-07-13T18:16:16.664Z,26.60
2018-07-13T18:18:46.587Z,26.50
2018-07-13T18:50:35.194Z,25.30
2018-07-13T18:53:03.703Z,25.20
2018-07-13T18:55:32.224Z,25.20
2018-07-13T18:58:00.648Z,25.10
2018-07-13T19:00:29.377Z,25.00
2018-07-13T19:02:57.907Z,24.90
2018-07-13T19:05:26.406Z,24.80
2018-07-13T19:07:55.040Z,24.70
2018-07-13T19:10:23.577Z,24.60
2018-07-13T19:12:52.157Z,24.50
2018-07-13T19:15:20.692Z,24.40
2018-07-13T19:17:49.192Z,24.30
2018-07-13T19:20:17.674Z,24.10
2018-07-13T19:22:46.367Z,24.10
2018-07-13T19:25:14.714Z,24.00
2018-07-13T19:27:43.236Z,23.90
2018-07-13T19:30:11.644Z,23.80
2018-07-13T19:32:40.233Z,23.70
2018-07-13T19:35:08.786Z,23.70
2018-07-13T19:37:37.488Z,23.60
2018-07-13T19:40:05.972Z,23.50
2018-07-13T19:42:34.446Z,23.40
2018-07-13T19:45:04.118Z,23.30
2018-07-13T19:47:32.650Z,23.10
2018-07-13T19:50:01.120Z,23.00
2018-07-13T19:52:29.716Z,23.00
2018-07-13T19:54:58.609Z,22.90
2018-07-13T19:57:27.208Z,22.80
2018-07-13T19:59:55.782Z,22.70
2018-07-13T20:05:27.793Z,22.50
2018-07-13T20:07:56.483Z,22.40
2018-07-13T20:10:25.092Z,22.20
2018-07-13T20:12:53.850Z,22.10
2018-07-13T20:20:19.129Z,21.70
2018-07-13T20:22:47.670Z,21.60
2018-07-13T20:25:16.211Z,21.40
2018-07-13T20:27:44.651Z,21.30
2018-07-13T20:30:13.182Z,21.20
2018-07-13T20:32:42.117Z,21.20
2018-07-13T20:35:10.799Z,21.20
2018-07-13T20:37:39.457Z,21.10
2018-07-13T20:40:08.034Z,21.10
2018-07-13T20:42:36.821Z,20.90
2018-07-13T20:45:05.390Z,20.80
2018-07-13T20:47:34.013Z,20.60
2018-07-13T20:50:02.626Z,20.50
2018-07-13T20:52:31.208Z,20.40
2018-07-13T20:54:59.715Z,20.30
2018-07-13T20:57:28.322Z,20.20
2018-07-13T20:59:56.867Z,20.10
2018-07-13T21:02:25.501Z,20.00
2018-07-13T21:04:54.056Z,20.00
2018-07-13T21:07:22.661Z,19.90
2018-07-13T21:09:51.204Z,19.90
2018-07-13T21:12:19.925Z,19.80
2018-07-13T21:17:16.634Z,19.60
2018-07-13T21:19:45.259Z,19.50
2018-07-13T21:22:13.803Z,19.40
2018-07-13T21:24:42.437Z,19.40
2018-07-13T21:27:11.455Z,19.20
2018-07-13T21:29:39.996Z,19.20
2018-07-13T21:32:08.589Z,19.10
2018-07-13T21:34:37.055Z,19.00
2018-07-13T21:37:05.612Z,18.90
2018-07-13T21:39:34.103Z,18.80
2018-07-13T21:42:02.732Z,18.70
2018-07-13T21:44:31.237Z,18.60
2018-07-13T21:46:59.777Z,18.50
2018-07-13T21:49:28.341Z,18.40
2018-07-13T21:51:56.836Z,18.40
2018-07-13T21:54:25.383Z,18.30
2018-07-13T21:56:53.909Z,18.30
2018-07-13T21:59:22.527Z,18.20
2018-07-13T22:01:51.121Z,18.20
2018-07-13T22:04:19.514Z,18.20
2018-07-13T22:06:48.025Z,18.00
2018-07-13T22:09:16.844Z,18.00
2018-07-13T22:11:45.522Z,17.90
2018-07-13T22:14:14.056Z,17.80
2018-07-13T22:16:42.671Z,17.80
2018-07-13T22:19:11.213Z,17.70
2018-07-13T22:21:40.392Z,17.60
2018-07-13T22:24:09.211Z,17.60
2018-07-13T22:26:37.755Z,17.50
2018-07-13T22:29:06.314Z,17.50
2018-07-13T22:31:34.897Z,17.40
2018-07-13T22:34:03.419Z,17.40
2018-07-13T22:36:31.953Z,17.30
2018-07-13T22:39:00.539Z,17.30
2018-07-13T22:41:29.340Z,17.20
2018-07-13T22:43:57.864Z,17.20
2018-07-13T22:46:26.364Z,17.10
2018-07-13T22:48:54.900Z,17.00
2018-07-13T22:51:23.465Z,17.00
2018-07-13T22:53:51.948Z,16.90
2018-07-13T22:56:20.471Z,16.90
2018-07-13T22:58:49.123Z,16.80
2018-07-13T23:01:17.778Z,16.90
2018-07-13T23:03:46.251Z,16.80
2018-07-13T23:06:14.828Z,16.80
2018-07-13T23:08:43.293Z,16.80
2018-07-13T23:11:11.858Z,16.80
2018-07-13T23:13:40.354Z,16.70
2018-07-13T23:16:08.840Z,16.70
2018-07-13T23:18:37.296Z,16.70
2018-07-13T23:21:05.860Z,16.70
2018-07-13T23:23:34.474Z,16.60
2018-07-13T23:28:31.355Z,16.50
2018-07-13T23:30:59.929Z,16.50
2018-07-13T23:33:28.491Z,16.50
2018-07-13T23:35:57.024Z,16.40
2018-07-13T23:38:25.780Z,16.40
2018-07-13T23:40:54.399Z,16.30
2018-07-13T23:43:22.989Z,16.20
2018-07-13T23:45:51.492Z,16.10
2018-07-13T23:48:20.106Z,16.10
2018-07-13T23:50:48.685Z,16.10
2018-07-13T23:55:45.541Z,16.10
2018-07-13T23:58:14.141Z,16.00
